Time,TemperatureF,DewpointF,PressureIn,WindDirection,WindDirectionDegrees,WindSpeedMPH,WindSpeedGustMPH,Humidity,HourlyPrecipIn,Conditions,Clouds,dailyrainin,SoftwareType,DateUTC
2017-12-17 00:00:00,25.5,22.7,30.29,East,93,0.0,0.0,89,0.00,,SKC,0.00,VWS V15.00,2017-12-17 05:00:00,
2017-12-17 00:02:00,25.5,22.7,30.28,East,94,0.0,0.0,89,0.00,,SKC,0.00,VWS V15.00,2017-12-17 05:02:00,
2017-12-17 00:07:00,25.5,23.0,30.28,NE,43,0.0,1.0,90,0.00,,SKC,0.00,VWS V15.00,2017-12-17 05:07:00,
2017-12-17 00:09:00,25.4,22.9,30.28,ENE,60,0.0,1.0,90,0.00,,SKC,0.00,VWS V15.00,2017-12-17 05:09:00,
2017-12-17 00:14:00,25.4,22.9,30.28,ESE,109,1.0,2.0,90,0.00,,SKC,0.00,VWS V15.00,2017-12-17 05:14:00,
2017-12-17 00:15:00,25.4,22.9,30.28,East,90,1.0,1.0,90,0.00,,SKC,0.00,VWS V15.00,2017-12-17 05:15:00,
2017-12-17 00:16:00,25.4,22.9,30.28,East,87,0.0,1.0,90,0.00,,SKC,0.00,VWS V15.00,2017-12-17 05:16:00,
2017-12-17 00:21:00,25.6,23.1,30.28,ESE,104,3.0,4.0,90,0.00,,SKC,0.00,VWS V15.00,2017-12-17 05:21:00,
2017-12-17 00:26:00,26.0,23.5,30.28,ESE,117,0.0,4.0,90,0.00,,SKC,0.00,VWS V15.00,2017-12-17 05:26:00,
2017-12-17 00:31:00,25.7,22.9,30.28,ESE,117,0.0,0.0,89,0.00,,SKC,0.00,VWS V15.00,2017-12-17 05:31:00,
2017-12-17 00:36:00,25.6,22.8,30.28,East,101,0.0,1.0,89,0.00,,SKC,0.00,VWS V15.00,2017-12-17 05:36:00,
2017-12-17 00:40:00,25.4,22.6,30.28,SE,146,0.0,1.0,89,0.00,,SKC,0.00,VWS V15.00,2017-12-17 05:40:00,
2017-12-17 00:41:00,25.4,22.6,30.28,SE,146,0.0,1.0,89,0.00,,SKC,0.00,VWS V15.00,2017-12-17 05:41:00,
2017-12-17 00:46:00,25.3,22.5,30.28,SSE,151,0.0,0.0,89,0.00,,SKC,0.00,VWS V15.00,2017-12-17 05:46:00,
2017-12-17 00:47:00,25.3,22.5,30.28,SSE,150,0.0,0.0,89,0.00,,SKC,0.00,VWS V15.00,2017-12-17 05:47:00,
2017-12-17 00:51:00,25.2,22.4,30.27,SSE,153,0.0,0.0,89,0.00,,SKC,0.00,VWS V15.00,2017-12-17 05:51:00,
2017-12-17 00:53:00,25.2,22.7,30.27,East,101,1.0,2.0,90,0.00,,SKC,0.00,VWS V15.00,2017-12-17 05:53:00,
2017-12-17 00:58:00,25.3,22.8,30.27,ESE,110,0.0,2.0,90,0.00,,SKC,0.00,VWS V15.00,2017-12-17 05:58:00,
2017-12-17 00:59:00,25.2,22.7,30.27,NE,41,0.0,2.0,90,0.00,,SKC,0.00,VWS V15.00,2017-12-17 05:59:00,
2017-12-17 01:00:00,25.2,22.7,30.26,NE,41,0.0,0.0,90,0.00,,SKC,0.00,VWS V15.00,2017-12-17 06:00:00,
2017-12-17 01:04:00,25.1,22.6,30.26,ENE,65,0.0,1.0,90,0.00,,SKC,0.00,VWS V15.00,2017-12-17 06:04:00,
2017-12-17 01:09:00,25.1,22.6,30.26,ENE,73,0.0,1.0,90,0.00,,SKC,0.00,VWS V15.00,2017-12-17 06:09:00,
2017-12-17 01:12:00,25.1,22.6,30.26,ENE,73,0.0,1.0,90,0.00,,SKC,0.00,VWS V15.00,2017-12-17 06:12:00,
2017-12-17 01:17:00,25.0,22.5,30.26,ENE,73,0.0,0.0,90,0.00,,SKC,0.00,VWS V15.00,2017-12-17 06:17:00,
2017-12-17 01:18:00,25.0,22.5,30.26,ENE,73,0.0,0.0,90,0.00,,SKC,0.00,VWS V15.00,2017-12-17 06:18:00,
2017-12-17 01:20:00,24.9,22.4,30.26,ENE,73,0.0,0.0,90,0.00,,SKC,0.00,VWS V15.00,2017-12-17 06:20:00,
2017-12-17 01:25:00,24.8,22.3,30.27,ENE,73,0.0,1.0,90,0.00,,SKC,0.00,VWS V15.00,2017-12-17 06:25:00,
2017-12-17 01:27:00,24.8,22.3,30.26,ENE,73,0.0,1.0,90,0.00,,SKC,0.00,VWS V15.00,2017-12-17 06:27:00,
2017-12-17 01:32:00,24.7,22.2,30.27,ENE,74,0.0,0.0,90,0.00,,SKC,0.00,VWS V15.00,2017-12-17 06:32:00,
2017-12-17 01:33:00,24.7,22.2,30.27,ENE,74,0.0,0.0,90,0.00,,SKC,0.00,VWS V15.00,2017-12-17 06:33:00,
2017-12-17 01:38:00,24.6,22.1,30.27,ENE,73,0.0,0.0,90,0.00,,SKC,0.00,VWS V15.00,2017-12-17 06:38:00,
2017-12-17 01:39:00,24.6,22.1,30.27,ENE,73,0.0,0.0,90,0.00,,SKC,0.00,VWS V15.00,2017-12-17 06:39:00,
2017-12-17 01:44:00,24.7,22.2,30.27,ENE,73,0.0,0.0,90,0.00,,SKC,0.00,VWS V15.00,2017-12-17 06:44:00,
2017-12-17 01:45:00,24.7,22.2,30.27,ENE,73,0.0,0.0,90,0.00,,SKC,0.00,VWS V15.00,2017-12-17 06:45:00,
2017-12-17 01:48:00,24.7,22.2,30.27,ENE,73,0.0,0.0,90,0.00,,SKC,0.00,VWS V15.00,2017-12-17 06:48:00,
2017-12-17 01:50:00,24.7,22.2,30.27,ENE,73,0.0,0.0,90,0.00,,SKC,0.00,VWS V15.00,2017-12-17 06:50:00,
2017-12-17 01:53:00,24.7,22.2,30.27,NE,51,0.0,1.0,90,0.00,,SKC,0.00,VWS V15.00,2017-12-17 06:53:00,
2017-12-17 01:56:00,24.6,22.1,30.27,NE,51,1.0,1.0,90,0.00,,SKC,0.00,VWS V15.00,2017-12-17 06:56:00,
2017-12-17 01:58:00,24.6,22.1,30.27,NE,51,0.0,1.0,90,0.00,,SKC,0.00,VWS V15.00,2017-12-17 06:58:00,
2017-12-17 02:01:00,24.6,22.1,30.27,NE,51,0.0,0.0,90,0.00,,SKC,0.00,VWS V15.00,2017-12-17 07:01:00,
2017-12-17 02:05:00,24.5,22.0,30.27,NE,51,0.0,0.0,90,0.00,,SKC,0.00,VWS V15.00,2017-12-17 07:05:00,
2017-12-17 02:08:00,24.4,21.9,30.27,NE,51,0.0,0.0,90,0.00,,SKC,0.00,VWS V15.00,2017-12-17 07:08:00,
2017-12-17 02:10:00,24.3,21.8,30.27,NE,51,0.0,0.0,90,0.00,,SKC,0.00,VWS V15.00,2017-12-17 07:10:00,
2017-12-17 02:14:00,24.2,21.7,30.27,NE,51,0.0,0.0,90,0.00,,SKC,0.00,VWS V15.00,2017-12-17 07:14:00,
2017-12-17 02:19:00,24.1,21.6,30.28,ESE,116,1.0,1.0,90,0.00,,SKC,0.00,VWS V15.00,2017-12-17 07:19:00,
2017-12-17 02:24:00,24.4,22.2,30.28,ESE,115,0.0,1.0,91,0.00,,SKC,0.00,VWS V15.00,2017-12-17 07:24:00,
2017-12-17 02:25:00,24.4,22.2,30.28,ESE,114,0.0,1.0,91,0.00,,SKC,0.00,VWS V15.00,2017-12-17 07:25:00,
2017-12-17 02:28:00,24.3,22.1,30.28,ESE,115,0.0,1.0,91,0.00,,SKC,0.00,VWS V15.00,2017-12-17 07:28:00,
2017-12-17 02:32:00,24.2,22.0,30.28,ESE,114,0.0,0.0,91,0.00,,SKC,0.00,VWS V15.00,2017-12-17 07:32:00,
2017-12-17 02:34:00,24.1,21.9,30.28,ESE,114,0.0,1.0,91,0.00,,SKC,0.00,VWS V15.00,2017-12-17 07:34:00,
2017-12-17 02:39:00,24.0,21.8,30.28,East,85,0.0,1.0,91,0.00,,SKC,0.00,VWS V15.00,2017-12-17 07:39:00,
2017-12-17 02:41:00,23.9,21.7,30.28,East,96,0.0,1.0,91,0.00,,SKC,0.00,VWS V15.00,2017-12-17 07:41:00,
2017-12-17 02:43:00,23.9,21.7,30.28,East,96,0.0,1.0,91,0.00,,SKC,0.00,VWS V15.00,2017-12-17 07:43:00,
2017-12-17 02:48:00,23.9,21.7,30.28,East,96,0.0,1.0,91,0.00,,SKC,0.00,VWS V15.00,2017-12-17 07:48:00,
2017-12-17 02:50:00,23.8,21.6,30.28,East,96,0.0,1.0,91,0.00,,SKC,0.00,VWS V15.00,2017-12-17 07:50:00,
2017-12-17 02:55:00,23.8,21.6,30.28,East,96,0.0,1.0,91,0.00,,SKC,0.00,VWS V15.00,2017-12-17 07:55:00,
2017-12-17 03:00:00,23.8,21.6,30.28,East,96,0.0,0.0,91,0.00,,SKC,0.00,VWS V15.00,2017-12-17 08:00:00,
2017-12-17 03:05:00,23.8,21.6,30.28,East,96,0.0,0.0,91,0.00,,SKC,0.00,VWS V15.00,2017-12-17 08:05:00,
2017-12-17 03:08:00,23.7,21.5,30.28,East,96,0.0,0.0,91,0.00,,SKC,0.00,VWS V15.00,2017-12-17 08:08:00,
2017-12-17 03:13:00,23.4,21.2,30.29,East,96,0.0,0.0,91,0.00,,SKC,0.00,VWS V15.00,2017-12-17 08:13:00,
2017-12-17 03:18:00,23.2,21.0,30.28,East,96,0.0,0.0,91,0.00,,SKC,0.00,VWS V15.00,2017-12-17 08:18:00,
2017-12-17 03:20:00,23.1,20.9,30.28,East,96,0.0,0.0,91,0.00,,SKC,0.00,VWS V15.00,2017-12-17 08:20:00,
2017-12-17 03:25:00,23.1,20.9,30.28,East,96,0.0,0.0,91,0.00,,SKC,0.00,VWS V15.00,2017-12-17 08:25:00,
2017-12-17 03:26:00,23.1,20.9,30.28,East,96,0.0,0.0,91,0.00,,SKC,0.00,VWS V15.00,2017-12-17 08:26:00,
2017-12-17 03:30:00,23.1,20.9,30.27,East,96,0.0,0.0,91,0.00,,SKC,0.00,VWS V15.00,2017-12-17 08:30:00,
2017-12-17 03:35:00,23.4,21.2,30.27,East,96,0.0,1.0,91,0.00,,SKC,0.00,VWS V15.00,2017-12-17 08:35:00,
2017-12-17 03:37:00,23.5,21.3,30.27,East,96,0.0,1.0,91,0.00,,SKC,0.00,VWS V15.00,2017-12-17 08:37:00,
2017-12-17 03:41:00,23.5,21.3,30.27,East,96,0.0,1.0,91,0.00,,SKC,0.00,VWS V15.00,2017-12-17 08:41:00,
2017-12-17 03:46:00,23.3,21.1,30.27,East,97,0.0,0.0,91,0.00,,SKC,0.00,VWS V15.00,2017-12-17 08:46:00,
2017-12-17 03:51:00,23.4,21.2,30.26,East,96,0.0,0.0,91,0.00,,SKC,0.00,VWS V15.00,2017-12-17 08:51:00,
2017-12-17 03:52:00,23.4,21.2,30.26,East,96,0.0,0.0,91,0.00,,SKC,0.00,VWS V15.00,2017-12-17 08:52:00,
2017-12-17 03:57:00,23.5,21.3,30.26,East,96,0.0,0.0,91,0.00,,SKC,0.00,VWS V15.00,2017-12-17 08:57:00,
2017-12-17 04:00:00,23.4,21.2,30.26,East,96,0.0,0.0,91,0.00,,SKC,0.00,VWS V15.00,2017-12-17 09:00:00,
2017-12-17 04:05:00,23.3,21.1,30.26,East,96,0.0,0.0,91,0.00,,SKC,0.00,VWS V15.00,2017-12-17 09:05:00,
2017-12-17 04:06:00,23.3,21.1,30.26,East,96,0.0,0.0,91,0.00,,SKC,0.00,VWS V15.00,2017-12-17 09:06:00,
2017-12-17 04:11:00,23.2,21.0,30.26,East,96,0.0,0.0,91,0.00,,SKC,0.00,VWS V15.00,2017-12-17 09:11:00,
2017-12-17 04:16:00,23.1,20.9,30.27,East,96,0.0,0.0,91,0.00,,SKC,0.00,VWS V15.00,2017-12-17 09:16:00,
2017-12-17 04:17:00,23.2,21.0,30.26,East,96,0.0,0.0,91,0.00,,SKC,0.00,VWS V15.00,2017-12-17 09:17:00,
2017-12-17 04:22:00,23.1,20.9,30.26,East,96,0.0,0.0,91,0.00,,SKC,0.00,VWS V15.00,2017-12-17 09:22:00,
2017-12-17 04:23:00,23.1,20.9,30.26,East,96,0.0,0.0,91,0.00,,SKC,0.00,VWS V15.00,2017-12-17 09:23:00,
2017-12-17 04:28:00,23.2,21.0,30.27,East,96,0.0,0.0,91,0.00,,SKC,0.00,VWS V15.00,2017-12-17 09:28:00,
2017-12-17 04:29:00,23.2,21.0,30.27,East,96,0.0,0.0,91,0.00,,SKC,0.00,VWS V15.00,2017-12-17 09:29:00,
2017-12-17 04:34:00,23.2,21.0,30.27,East,96,0.0,1.0,91,0.00,,SKC,0.00,VWS V15.00,2017-12-17 09:34:00,
2017-12-17 04:36:00,23.2,21.0,30.27,East,97,1.0,2.0,91,0.00,,SKC,0.00,VWS V15.00,2017-12-17 09:36:00,
2017-12-17 04:39:00,23.4,21.2,30.27,East,99,0.0,2.0,91,0.00,,SKC,0.00,VWS V15.00,2017-12-17 09:39:00,
2017-12-17 04:41:00,23.4,21.2,30.26,East,93,0.0,2.0,91,0.00,,SKC,0.00,VWS V15.00,2017-12-17 09:41:00,
2017-12-17 04:44:00,23.4,21.2,30.27,East,83,0.0,2.0,91,0.00,,SKC,0.00,VWS V15.00,2017-12-17 09:44:00,
2017-12-17 04:48:00,23.4,21.2,30.27,East,84,0.0,0.0,91,0.00,,SKC,0.00,VWS V15.00,2017-12-17 09:48:00,
2017-12-17 04:49:00,23.4,21.2,30.26,East,83,0.0,0.0,91,0.00,,SKC,0.00,VWS V15.00,2017-12-17 09:49:00,
2017-12-17 04:54:00,23.6,21.4,30.27,East,95,1.0,2.0,91,0.00,,SKC,0.00,VWS V15.00,2017-12-17 09:54:00,
2017-12-17 04:59:00,23.6,21.4,30.26,SE,130,0.0,2.0,91,0.00,,SKC,0.00,VWS V15.00,2017-12-17 09:59:00,
2017-12-17 05:04:00,23.7,21.5,30.26,East,98,0.0,2.0,91,0.00,,SKC,0.00,VWS V15.00,2017-12-17 10:04:00,
2017-12-17 05:05:00,23.7,21.5,30.26,East,99,0.0,2.0,91,0.00,,SKC,0.00,VWS V15.00,2017-12-17 10:05:00,
2017-12-17 05:06:00,23.7,21.5,30.26,East,99,0.0,2.0,91,0.00,,SKC,0.00,VWS V15.00,2017-12-17 10:06:00,
2017-12-17 05:10:00,23.6,21.4,30.26,East,99,0.0,2.0,91,0.00,,SKC,0.00,VWS V15.00,2017-12-17 10:10:00,
2017-12-17 05:15:00,23.5,21.3,30.26,East,99,0.0,0.0,91,0.00,,SKC,0.00,VWS V15.00,2017-12-17 10:15:00,
2017-12-17 05:16:00,23.5,21.3,30.26,East,98,0.0,0.0,91,0.00,,SKC,0.00,VWS V15.00,2017-12-17 10:16:00,
2017-12-17 05:21:00,23.5,21.3,30.26,East,98,0.0,0.0,91,0.00,,SKC,0.00,VWS V15.00,2017-12-17 10:21:00,
2017-12-17 05:24:00,23.4,21.2,30.26,ENE,64,0.0,1.0,91,0.00,,SKC,0.00,VWS V15.00,2017-12-17 10:24:00,
2017-12-17 05:28:00,23.4,21.2,30.26,ENE,70,0.0,1.0,91,0.00,,SKC,0.00,VWS V15.00,2017-12-17 10:28:00,
2017-12-17 05:31:00,23.3,21.1,30.25,ESE,122,0.0,0.0,91,0.00,,SKC,0.00,VWS V15.00,2017-12-17 10:31:00,
2017-12-17 05:35:00,23.3,21.1,30.25,ESE,110,0.0,1.0,91,0.00,,SKC,0.00,VWS V15.00,2017-12-17 10:35:00,
2017-12-17 05:40:00,23.3,21.1,30.25,ESE,110,0.0,1.0,91,0.00,,SKC,0.00,VWS V15.00,2017-12-17 10:40:00,
2017-12-17 05:41:00,23.3,21.1,30.25,ESE,110,0.0,1.0,91,0.00,,SKC,0.00,VWS V15.00,2017-12-17 10:41:00,
2017-12-17 05:46:00,23.2,21.0,30.24,ESE,110,0.0,0.0,91,0.00,,SKC,0.00,VWS V15.00,2017-12-17 10:46:00,
2017-12-17 05:48:00,23.2,21.0,30.25,ESE,110,0.0,0.0,91,0.00,,SKC,0.00,VWS V15.00,2017-12-17 10:48:00,
2017-12-17 05:53:00,23.2,21.0,30.25,SW,221,1.0,1.0,91,0.00,,SKC,0.00,VWS V15.00,2017-12-17 10:53:00,
2017-12-17 05:54:00,23.2,21.0,30.26,SW,221,1.0,1.0,91,0.00,,SKC,0.00,VWS V15.00,2017-12-17 10:54:00,
2017-12-17 05:59:00,23.4,21.2,30.27,WSW,248,0.0,2.0,91,0.00,,SKC,0.00,VWS V15.00,2017-12-17 10:59:00,
2017-12-17 06:04:00,23.6,21.4,30.26,WSW,255,0.0,1.0,91,0.00,,SKC,0.00,VWS V15.00,2017-12-17 11:04:00,
2017-12-17 06:06:00,23.6,21.4,30.26,WSW,255,0.0,1.0,91,0.00,,SKC,0.00,VWS V15.00,2017-12-17 11:06:00,
2017-12-17 06:11:00,23.9,21.7,30.25,West,263,0.0,1.0,91,0.00,,SKC,0.00,VWS V15.00,2017-12-17 11:11:00,
2017-12-17 06:12:00,23.9,21.7,30.25,West,262,0.0,1.0,91,0.00,,SKC,0.00,VWS V15.00,2017-12-17 11:12:00,
2017-12-17 06:17:00,23.9,21.7,30.26,West,263,0.0,0.0,91,0.00,,SKC,0.00,VWS V15.00,2017-12-17 11:17:00,
2017-12-17 06:18:00,23.9,21.7,30.26,West,262,0.0,0.0,91,0.00,,SKC,0.00,VWS V15.00,2017-12-17 11:18:00,
2017-12-17 06:23:00,24.0,21.8,30.26,West,262,0.0,0.0,91,0.00,,SKC,0.00,VWS V15.00,2017-12-17 11:23:00,
2017-12-17 06:24:00,24.0,21.8,30.26,West,263,0.0,0.0,91,0.00,,SKC,0.00,VWS V15.00,2017-12-17 11:24:00,
2017-12-17 06:26:00,24.0,21.8,30.26,West,263,0.0,1.0,91,0.00,,SKC,0.00,VWS V15.00,2017-12-17 11:26:00,
2017-12-17 06:29:00,24.0,21.8,30.26,West,271,0.0,1.0,91,0.00,,SKC,0.00,VWS V15.00,2017-12-17 11:29:00,
2017-12-17 06:32:00,24.0,21.8,30.26,WNW,294,0.0,1.0,91,0.00,,SKC,0.00,VWS V15.00,2017-12-17 11:32:00,
2017-12-17 06:35:00,24.1,21.9,30.26,WNW,294,0.0,1.0,91,0.00,,SKC,0.00,VWS V15.00,2017-12-17 11:35:00,
2017-12-17 06:40:00,24.2,22.0,30.25,ESE,106,0.0,1.0,91,0.00,,SKC,0.00,VWS V15.00,2017-12-17 11:40:00,
2017-12-17 06:45:00,24.6,22.4,30.26,ESE,105,0.0,0.0,91,0.00,,SKC,0.00,VWS V15.00,2017-12-17 11:45:00,
2017-12-17 06:46:00,24.5,22.2,30.26,ESE,106,0.0,0.0,91,0.00,,SKC,0.00,VWS V15.00,2017-12-17 11:46:00,
2017-12-17 06:51:00,24.7,22.5,30.25,ESE,106,0.0,1.0,91,0.00,,SKC,0.00,VWS V15.00,2017-12-17 11:51:00,
2017-12-17 06:56:00,24.8,22.5,30.26,ESE,105,0.0,1.0,91,0.00,,SKC,0.00,VWS V15.00,2017-12-17 11:56:00,
2017-12-17 06:57:00,24.8,22.5,30.26,ESE,105,0.0,1.0,91,0.00,,SKC,0.00,VWS V15.00,2017-12-17 11:57:00,
2017-12-17 06:58:00,24.8,22.5,30.26,ESE,106,0.0,1.0,91,0.00,,SKC,0.00,VWS V15.00,2017-12-17 11:58:00,
2017-12-17 07:03:00,24.9,22.6,30.26,ESE,105,0.0,0.0,91,0.00,,SKC,0.00,VWS V15.00,2017-12-17 12:03:00,
2017-12-17 07:08:00,24.9,22.6,30.26,ESE,105,0.0,0.0,91,0.00,,SKC,0.00,VWS V15.00,2017-12-17 12:08:00,
2017-12-17 07:09:00,24.9,22.6,30.26,ESE,105,0.0,0.0,91,0.00,,SKC,0.00,VWS V15.00,2017-12-17 12:09:00,
2017-12-17 07:10:00,24.9,22.6,30.26,ESE,106,0.0,0.0,91,0.00,,SKC,0.00,VWS V15.00,2017-12-17 12:10:00,
2017-12-17 07:15:00,25.0,22.8,30.26,ESE,105,0.0,0.0,91,0.00,,SKC,0.00,VWS V15.00,2017-12-17 12:15:00,
2017-12-17 07:18:00,25.0,22.8,30.26,ESE,106,0.0,0.0,91,0.00,,SKC,0.00,VWS V15.00,2017-12-17 12:18:00,
2017-12-17 07:20:00,25.0,22.8,30.26,ESE,106,0.0,0.0,91,0.00,,SKC,0.00,VWS V15.00,2017-12-17 12:20:00,
2017-12-17 07:25:00,25.0,22.8,30.26,NNE,20,0.0,1.0,91,0.00,,SKC,0.00,VWS V15.00,2017-12-17 12:25:00,
2017-12-17 07:30:00,25.0,22.8,30.26,NNE,20,0.0,0.0,91,0.00,,SKC,0.00,VWS V15.00,2017-12-17 12:30:00,
2017-12-17 07:31:00,25.1,22.9,30.26,NNE,22,0.0,0.0,91,0.00,,SKC,0.00,VWS V15.00,2017-12-17 12:31:00,
2017-12-17 07:36:00,25.2,23.0,30.26,East,98,0.0,1.0,91,0.00,,SKC,0.00,VWS V15.00,2017-12-17 12:36:00,
2017-12-17 07:37:00,25.3,23.0,30.26,East,97,0.0,1.0,91,0.00,,SKC,0.00,VWS V15.00,2017-12-17 12:37:00,
2017-12-17 07:42:00,25.4,23.1,30.26,East,97,0.0,1.0,91,0.00,,SKC,0.00,VWS V15.00,2017-12-17 12:42:00,
2017-12-17 07:43:00,25.4,23.1,30.27,East,98,0.0,1.0,91,0.00,,SKC,0.00,VWS V15.00,2017-12-17 12:43:00,
2017-12-17 07:48:00,25.4,23.1,30.27,East,98,0.0,0.0,91,0.00,,SKC,0.00,VWS V15.00,2017-12-17 12:48:00,
2017-12-17 07:50:00,25.3,23.0,30.27,East,98,0.0,1.0,91,0.00,,SKC,0.00,VWS V15.00,2017-12-17 12:50:00,
2017-12-17 07:55:00,25.3,23.0,30.26,East,97,0.0,1.0,91,0.00,,SKC,0.00,VWS V15.00,2017-12-17 12:55:00,
2017-12-17 07:59:00,25.3,23.0,30.27,East,97,0.0,1.0,91,0.00,,SKC,0.00,VWS V15.00,2017-12-17 12:59:00,
2017-12-17 08:00:00,25.3,23.0,30.27,East,97,0.0,0.0,91,0.00,,SKC,0.00,VWS V15.00,2017-12-17 13:00:00,
2017-12-17 08:05:00,25.3,23.0,30.27,East,97,0.0,0.0,91,0.00,,SKC,0.00,VWS V15.00,2017-12-17 13:05:00,
2017-12-17 08:06:00,25.3,23.0,30.27,East,97,0.0,0.0,91,0.00,,SKC,0.00,VWS V15.00,2017-12-17 13:06:00,
2017-12-17 08:11:00,25.5,23.2,30.26,East,97,0.0,0.0,91,0.00,,SKC,0.00,VWS V15.00,2017-12-17 13:11:00,
2017-12-17 08:12:00,25.6,23.3,30.26,East,97,0.0,0.0,91,0.00,,SKC,0.00,VWS V15.00,2017-12-17 13:12:00,
2017-12-17 08:13:00,25.6,23.3,30.26,East,98,0.0,0.0,91,0.00,,SKC,0.00,VWS V15.00,2017-12-17 13:13:00,
2017-12-17 08:18:00,25.8,23.5,30.27,East,97,0.0,1.0,91,0.00,,SKC,0.00,VWS V15.00,2017-12-17 13:18:00,
2017-12-17 08:19:00,25.8,23.5,30.27,East,97,0.0,1.0,91,0.00,,SKC,0.00,VWS V15.00,2017-12-17 13:19:00,
2017-12-17 08:24:00,26.0,23.7,30.27,East,97,0.0,1.0,91,0.00,,SKC,0.00,VWS V15.00,2017-12-17 13:24:00,
2017-12-17 08:27:00,26.1,23.8,30.27,East,97,1.0,1.0,91,0.00,,SKC,0.00,VWS V15.00,2017-12-17 13:27:00,
2017-12-17 08:29:00,26.2,23.9,30.28,West,274,0.0,2.0,91,0.00,,SKC,0.00,VWS V15.00,2017-12-17 13:29:00,
2017-12-17 08:34:00,26.4,24.1,30.29,WSW,255,1.0,2.0,91,0.00,,SKC,0.00,VWS V15.00,2017-12-17 13:34:00,
2017-12-17 08:38:00,26.6,24.3,30.29,West,268,1.0,2.0,91,0.00,,SKC,0.00,VWS V15.00,2017-12-17 13:38:00,
2017-12-17 08:39:00,26.6,24.1,30.29,WSW,250,1.0,2.0,90,0.00,,SKC,0.00,VWS V15.00,2017-12-17 13:39:00,
2017-12-17 08:43:00,26.8,24.3,30.29,WSW,250,0.0,2.0,90,0.00,,SKC,0.00,VWS V15.00,2017-12-17 13:43:00,
2017-12-17 08:46:00,26.9,24.4,30.29,WSW,253,1.0,1.0,90,0.00,,SKC,0.00,VWS V15.00,2017-12-17 13:46:00,
2017-12-17 08:49:00,27.0,24.5,30.29,WSW,253,0.0,1.0,90,0.00,,SKC,0.00,VWS V15.00,2017-12-17 13:49:00,
2017-12-17 08:53:00,27.1,24.6,30.28,WSW,253,0.0,1.0,90,0.00,,SKC,0.00,VWS V15.00,2017-12-17 13:53:00,
2017-12-17 08:54:00,27.2,24.7,30.28,WSW,253,0.0,1.0,90,0.00,,SKC,0.00,VWS V15.00,2017-12-17 13:54:00,
2017-12-17 08:59:00,27.5,25.0,30.28,WSW,253,0.0,1.0,90,0.00,,SKC,0.00,VWS V15.00,2017-12-17 13:59:00,
2017-12-17 09:04:00,27.8,25.2,30.28,WSW,253,0.0,0.0,90,0.00,,SKC,0.00,VWS V15.00,2017-12-17 14:04:00,
2017-12-17 09:09:00,28.2,25.6,30.29,WSW,253,0.0,0.0,90,0.00,,SKC,0.00,VWS V15.00,2017-12-17 14:09:00,
2017-12-17 09:10:00,28.2,25.6,30.29,WSW,253,0.0,0.0,90,0.00,,SKC,0.00,VWS V15.00,2017-12-17 14:10:00,
2017-12-17 09:13:00,28.5,26.0,30.29,WSW,253,0.0,1.0,90,0.00,,SKC,0.00,VWS V15.00,2017-12-17 14:13:00,
2017-12-17 09:15:00,28.5,26.0,30.29,WSW,253,0.0,0.0,90,0.00,,SKC,0.00,VWS V15.00,2017-12-17 14:15:00,
2017-12-17 09:20:00,28.7,26.1,30.29,WSW,253,0.0,0.0,90,0.00,,SKC,0.00,VWS V15.00,2017-12-17 14:20:00,
2017-12-17 09:21:00,28.7,25.9,30.28,WSW,253,0.0,0.0,89,0.00,,SKC,0.00,VWS V15.00,2017-12-17 14:21:00,
2017-12-17 09:22:00,28.8,26.0,30.28,WSW,253,0.0,0.0,89,0.00,,SKC,0.00,VWS V15.00,2017-12-17 14:22:00,
2017-12-17 09:26:00,28.9,26.1,30.29,WSW,253,0.0,0.0,89,0.00,,SKC,0.00,VWS V15.00,2017-12-17 14:26:00,
2017-12-17 09:29:00,29.0,26.2,30.29,WSW,253,0.0,1.0,89,0.00,,SKC,0.00,VWS V15.00,2017-12-17 14:29:00,
2017-12-17 09:31:00,29.1,26.3,30.28,WSW,253,0.0,0.0,89,0.00,,SKC,0.00,VWS V15.00,2017-12-17 14:31:00,
2017-12-17 09:35:00,29.3,26.5,30.28,East,96,1.0,1.0,89,0.00,,SKC,0.00,VWS V15.00,2017-12-17 14:35:00,
2017-12-17 09:36:00,29.4,26.3,30.28,East,79,0.0,1.0,88,0.00,,SKC,0.00,VWS V15.00,2017-12-17 14:36:00,
2017-12-17 09:41:00,29.6,26.5,30.27,East,101,0.0,1.0,88,0.00,,SKC,0.00,VWS V15.00,2017-12-17 14:41:00,
2017-12-17 09:46:00,29.8,26.7,30.28,NW,308,0.0,1.0,88,0.00,,SKC,0.00,VWS V15.00,2017-12-17 14:46:00,
2017-12-17 09:47:00,29.8,26.7,30.28,NW,308,0.0,1.0,88,0.00,,SKC,0.00,VWS V15.00,2017-12-17 14:47:00,
2017-12-17 09:52:00,30.0,26.9,30.28,NW,308,0.0,1.0,88,0.00,,SKC,0.00,VWS V15.00,2017-12-17 14:52:00,
2017-12-17 09:57:00,30.1,27.0,30.29,NW,308,0.0,1.0,88,0.00,,SKC,0.00,VWS V15.00,2017-12-17 14:57:00,
2017-12-17 09:58:00,30.1,27.0,30.29,NW,308,0.0,1.0,88,0.00,,SKC,0.00,VWS V15.00,2017-12-17 14:58:00,
2017-12-17 10:03:00,30.3,26.9,30.29,West,263,1.0,1.0,87,0.00,,SKC,0.00,VWS V15.00,2017-12-17 15:03:00,
2017-12-17 10:08:00,30.4,26.7,30.29,West,271,1.0,2.0,86,0.00,,SKC,0.00,VWS V15.00,2017-12-17 15:08:00,
2017-12-17 10:09:00,30.4,26.7,30.29,WSW,246,2.0,2.0,86,0.00,,SKC,0.00,VWS V15.00,2017-12-17 15:09:00,
2017-12-17 10:13:00,30.5,26.8,30.29,WSW,246,0.0,2.0,86,0.00,,SKC,0.00,VWS V15.00,2017-12-17 15:13:00,
2017-12-17 10:14:00,30.6,26.9,30.29,WSW,246,0.0,2.0,86,0.00,,SKC,0.00,VWS V15.00,2017-12-17 15:14:00,
2017-12-17 10:19:00,30.9,27.5,30.27,WSW,246,0.0,1.0,87,0.00,,SKC,0.00,VWS V15.00,2017-12-17 15:19:00,
2017-12-17 10:22:00,31.0,27.3,30.27,ESE,105,0.0,2.0,86,0.00,,SKC,0.00,VWS V15.00,2017-12-17 15:22:00,
2017-12-17 10:27:00,31.3,27.6,30.27,East,83,2.0,3.0,86,0.00,,SKC,0.00,VWS V15.00,2017-12-17 15:27:00,
2017-12-17 10:28:00,31.3,27.3,30.27,ESE,104,1.0,3.0,85,0.00,,SKC,0.00,VWS V15.00,2017-12-17 15:28:00,
2017-12-17 10:33:00,31.7,27.7,30.27,NE,45,0.0,2.0,85,0.00,,SKC,0.00,VWS V15.00,2017-12-17 15:33:00,
2017-12-17 10:34:00,31.8,27.8,30.27,NE,45,0.0,2.0,85,0.00,,SKC,0.00,VWS V15.00,2017-12-17 15:34:00,
2017-12-17 10:38:00,32.1,28.1,30.26,NE,45,0.0,2.0,85,0.00,,SKC,0.00,VWS V15.00,2017-12-17 15:38:00,
2017-12-17 10:41:00,32.3,28.3,30.26,NE,45,0.0,2.0,85,0.00,,SKC,0.00,VWS V15.00,2017-12-17 15:41:00,
2017-12-17 10:44:00,32.6,28.3,30.26,NE,45,0.0,2.0,84,0.00,,SKC,0.00,VWS V15.00,2017-12-17 15:44:00,
2017-12-17 10:46:00,32.7,28.4,30.26,NE,41,0.0,0.0,84,0.00,,SKC,0.00,VWS V15.00,2017-12-17 15:46:00,
2017-12-17 10:49:00,32.9,28.6,30.26,NE,41,0.0,1.0,84,0.00,,SKC,0.00,VWS V15.00,2017-12-17 15:49:00,
2017-12-17 10:52:00,33.0,28.4,30.26,NE,41,0.0,1.0,83,0.00,,SKC,0.00,VWS V15.00,2017-12-17 15:52:00,
2017-12-17 10:55:00,33.1,28.2,30.26,NE,41,0.0,1.0,82,0.00,,SKC,0.00,VWS V15.00,2017-12-17 15:55:00,
2017-12-17 10:57:00,33.2,28.0,30.26,NE,41,0.0,1.0,81,0.00,,SKC,0.00,VWS V15.00,2017-12-17 15:57:00,
2017-12-17 11:02:00,33.3,27.8,30.27,WNW,283,0.0,1.0,80,0.00,,SKC,0.00,VWS V15.00,2017-12-17 16:02:00,
2017-12-17 11:06:00,33.6,28.4,30.27,WNW,283,1.0,1.0,81,0.00,,SKC,0.00,VWS V15.00,2017-12-17 16:06:00,
2017-12-17 11:07:00,33.6,28.4,30.27,WNW,283,1.0,1.0,81,0.00,,SKC,0.00,VWS V15.00,2017-12-17 16:07:00,
2017-12-17 11:11:00,33.8,28.3,30.28,WSW,250,1.0,4.0,80,0.00,,SKC,0.00,VWS V15.00,2017-12-17 16:11:00,
2017-12-17 11:12:00,33.8,28.3,30.28,West,281,4.0,4.0,80,0.00,,SKC,0.00,VWS V15.00,2017-12-17 16:12:00,
2017-12-17 11:16:00,33.8,28.6,30.28,WSW,253,0.0,2.0,81,0.00,,SKC,0.00,VWS V15.00,2017-12-17 16:16:00,
2017-12-17 11:20:00,33.7,28.5,30.28,West,281,0.0,3.0,81,0.00,,SKC,0.00,VWS V15.00,2017-12-17 16:20:00,
2017-12-17 11:23:00,33.5,28.6,30.28,West,273,3.0,4.0,82,0.00,,SKC,0.00,VWS V15.00,2017-12-17 16:23:00,
2017-12-17 11:25:00,33.4,28.5,30.28,NW,309,0.0,4.0,82,0.00,,SKC,0.00,VWS V15.00,2017-12-17 16:25:00,
2017-12-17 11:30:00,33.4,28.8,30.27,West,275,2.0,3.0,83,0.00,,SKC,0.00,VWS V15.00,2017-12-17 16:30:00,
2017-12-17 11:32:00,33.4,28.5,30.27,West,278,0.0,3.0,82,0.00,,SKC,0.00,VWS V15.00,2017-12-17 16:32:00,
2017-12-17 11:37:00,33.6,28.7,30.27,West,280,0.0,3.0,82,0.00,,SKC,0.00,VWS V15.00,2017-12-17 16:37:00,
2017-12-17 11:38:00,33.6,28.7,30.27,West,280,0.0,3.0,82,0.00,,SKC,0.00,VWS V15.00,2017-12-17 16:38:00,
2017-12-17 11:43:00,34.0,29.1,30.26,West,280,0.0,3.0,82,0.00,,SKC,0.00,VWS V15.00,2017-12-17 16:43:00,
2017-12-17 11:49:00,34.5,29.6,30.25,West,280,0.0,0.0,82,0.00,,SKC,0.00,VWS V15.00,2017-12-17 16:49:00,
2017-12-17 11:51:00,34.8,29.9,30.25,West,280,0.0,0.0,82,0.00,,SKC,0.00,VWS V15.00,2017-12-17 16:51:00,
2017-12-17 11:55:00,35.3,30.1,30.25,West,280,0.0,0.0,81,0.00,,SKC,0.00,VWS V15.00,2017-12-17 16:55:00,
2017-12-17 11:57:00,35.5,30.3,30.25,WSW,242,1.0,1.0,81,0.00,,SKC,0.00,VWS V15.00,2017-12-17 16:57:00,
2017-12-17 12:02:00,35.7,30.5,30.23,WSW,242,0.0,0.0,81,0.00,,SKC,0.00,VWS V15.00,2017-12-17 17:02:00,
2017-12-17 12:06:00,36.0,30.4,30.23,WSW,242,0.0,1.0,80,0.00,,SKC,0.00,VWS V15.00,2017-12-17 17:06:00,
2017-12-17 12:09:00,36.1,30.2,30.23,WSW,242,1.0,1.0,79,0.00,,SKC,0.00,VWS V15.00,2017-12-17 17:09:00,
2017-12-17 12:14:00,36.4,30.2,30.23,WSW,242,0.0,1.0,78,0.00,,SKC,0.00,VWS V15.00,2017-12-17 17:14:00,
2017-12-17 12:17:00,36.7,30.5,30.23,WSW,242,0.0,1.0,78,0.00,,SKC,0.00,VWS V15.00,2017-12-17 17:17:00,
2017-12-17 12:19:00,37.0,30.8,30.23,WSW,242,0.0,1.0,78,0.00,,SKC,0.00,VWS V15.00,2017-12-17 17:19:00,
2017-12-17 12:22:00,37.3,30.8,30.22,WSW,242,0.0,1.0,77,0.00,,SKC,0.00,VWS V15.00,2017-12-17 17:22:00,
2017-12-17 12:24:00,37.4,30.5,30.21,WSW,242,1.0,1.0,76,0.00,,SKC,0.00,VWS V15.00,2017-12-17 17:24:00,
2017-12-17 12:28:00,37.5,30.0,30.22,West,269,0.0,1.0,74,0.00,,SKC,0.00,VWS V15.00,2017-12-17 17:28:00,
2017-12-17 12:29:00,37.5,30.0,30.21,West,269,0.0,1.0,74,0.00,,SKC,0.00,VWS V15.00,2017-12-17 17:29:00,
2017-12-17 12:33:00,37.8,30.3,30.21,West,268,0.0,1.0,74,0.00,,SKC,0.00,VWS V15.00,2017-12-17 17:33:00,
2017-12-17 12:36:00,38.1,30.9,30.21,West,268,0.0,1.0,75,0.00,,SKC,0.00,VWS V15.00,2017-12-17 17:36:00,
2017-12-17 12:41:00,38.8,31.2,30.20,West,269,1.0,1.0,74,0.00,,SKC,0.00,VWS V15.00,2017-12-17 17:41:00,
2017-12-17 12:45:00,39.1,30.5,30.20,West,269,0.0,0.0,71,0.00,,SKC,0.00,VWS V15.00,2017-12-17 17:45:00,
2017-12-17 12:47:00,39.3,31.0,30.20,West,269,0.0,1.0,72,0.00,,SKC,0.00,VWS V15.00,2017-12-17 17:47:00,
2017-12-17 12:52:00,39.5,30.5,30.20,West,268,0.0,1.0,70,0.00,,SKC,0.00,VWS V15.00,2017-12-17 17:52:00,
2017-12-17 12:53:00,39.5,30.5,30.20,West,268,0.0,1.0,70,0.00,,SKC,0.00,VWS V15.00,2017-12-17 17:53:00,
2017-12-17 12:58:00,39.8,29.8,30.19,West,268,0.0,1.0,67,0.00,,SKC,0.00,VWS V15.00,2017-12-17 17:58:00,
2017-12-17 12:59:00,39.8,30.1,30.19,SSW,199,0.0,1.0,68,0.00,,SKC,0.00,VWS V15.00,2017-12-17 17:59:00,
2017-12-17 13:00:00,39.9,30.2,30.19,SSW,198,0.0,0.0,68,0.00,,SKC,0.00,VWS V15.00,2017-12-17 18:00:00,
2017-12-17 13:04:00,40.4,30.3,30.19,WSW,250,1.0,2.0,67,0.00,,SKC,0.00,VWS V15.00,2017-12-17 18:04:00,
2017-12-17 13:09:00,40.5,29.7,30.19,WSW,250,0.0,2.0,65,0.00,,SKC,0.00,VWS V15.00,2017-12-17 18:09:00,
2017-12-17 13:11:00,40.6,29.8,30.19,WSW,250,0.0,2.0,65,0.00,,SKC,0.00,VWS V15.00,2017-12-17 18:11:00,
2017-12-17 13:14:00,41.0,30.5,30.19,West,277,2.0,2.0,66,0.00,,SKC,0.00,VWS V15.00,2017-12-17 18:14:00,
2017-12-17 13:16:00,41.2,30.7,30.19,WNW,282,2.0,2.0,66,0.00,,SKC,0.00,VWS V15.00,2017-12-17 18:16:00,
2017-12-17 13:21:00,41.7,29.3,30.19,West,273,2.0,2.0,61,0.00,,SKC,0.00,VWS V15.00,2017-12-17 18:21:00,
2017-12-17 13:22:00,41.8,29.8,30.19,West,273,0.0,2.0,62,0.00,,SKC,0.00,VWS V15.00,2017-12-17 18:22:00,
2017-12-17 13:24:00,42.0,30.3,30.19,West,269,1.0,2.0,63,0.00,,SKC,0.00,VWS V15.00,2017-12-17 18:24:00,
2017-12-17 13:28:00,43.1,30.2,30.18,NNW,341,0.0,2.0,60,0.00,,SKC,0.00,VWS V15.00,2017-12-17 18:28:00,
2017-12-17 13:29:00,43.3,29.5,30.18,NNW,341,0.0,2.0,58,0.00,,SKC,0.00,VWS V15.00,2017-12-17 18:29:00,
2017-12-17 13:34:00,43.9,29.2,30.19,West,271,0.0,2.0,56,0.00,,SKC,0.00,VWS V15.00,2017-12-17 18:34:00,
2017-12-17 13:39:00,44.1,29.4,30.19,West,270,0.0,2.0,56,0.00,,SKC,0.00,VWS V15.00,2017-12-17 18:39:00,
2017-12-17 13:44:00,44.2,29.5,30.19,West,269,2.0,2.0,56,0.00,,SKC,0.00,VWS V15.00,2017-12-17 18:44:00,
2017-12-17 13:45:00,44.1,29.0,30.19,WSW,252,1.0,2.0,55,0.00,,SKC,0.00,VWS V15.00,2017-12-17 18:45:00,
2017-12-17 13:46:00,44.0,28.9,30.19,WNW,285,1.0,2.0,55,0.00,,SKC,0.00,VWS V15.00,2017-12-17 18:46:00,
2017-12-17 13:51:00,43.7,29.5,30.19,WNW,285,1.0,2.0,57,0.00,,SKC,0.00,VWS V15.00,2017-12-17 18:51:00,
2017-12-17 13:55:00,43.7,30.3,30.18,WNW,285,0.0,2.0,59,0.00,,SKC,0.00,VWS V15.00,2017-12-17 18:55:00,
2017-12-17 13:56:00,43.7,30.3,30.18,WNW,285,0.0,2.0,59,0.00,,SKC,0.00,VWS V15.00,2017-12-17 18:56:00,
2017-12-17 14:01:00,43.8,30.4,30.18,WNW,285,0.0,1.0,59,0.00,,SKC,0.00,VWS V15.00,2017-12-17 19:01:00,
2017-12-17 14:02:00,43.8,30.4,30.18,WNW,285,0.0,1.0,59,0.00,,SKC,0.00,VWS V15.00,2017-12-17 19:02:00,
2017-12-17 14:07:00,44.0,29.8,30.17,NNE,18,0.0,2.0,57,0.00,,SKC,0.00,VWS V15.00,2017-12-17 19:07:00,
2017-12-17 14:10:00,44.0,30.6,30.17,NNE,19,0.0,2.0,59,0.00,,SKC,0.00,VWS V15.00,2017-12-17 19:10:00,
2017-12-17 14:13:00,44.1,30.7,30.17,NNE,18,1.0,2.0,59,0.00,,SKC,0.00,VWS V15.00,2017-12-17 19:13:00,
2017-12-17 14:15:00,44.0,29.8,30.17,NNE,19,0.0,0.0,57,0.00,,SKC,0.00,VWS V15.00,2017-12-17 19:15:00,
2017-12-17 14:18:00,43.9,30.5,30.16,NNE,18,0.0,0.0,59,0.00,,SKC,0.00,VWS V15.00,2017-12-17 19:18:00,
2017-12-17 14:23:00,43.8,30.0,30.16,NW,312,0.0,1.0,58,0.00,,SKC,0.00,VWS V15.00,2017-12-17 19:23:00,
2017-12-17 14:24:00,43.8,30.0,30.16,NW,312,0.0,1.0,58,0.00,,SKC,0.00,VWS V15.00,2017-12-17 19:24:00,
2017-12-17 14:29:00,43.7,30.3,30.15,NW,311,0.0,1.0,59,0.00,,SKC,0.00,VWS V15.00,2017-12-17 19:29:00,
2017-12-17 14:31:00,43.8,30.8,30.15,NW,312,0.0,0.0,60,0.00,,SKC,0.00,VWS V15.00,2017-12-17 19:31:00,
2017-12-17 14:36:00,44.0,30.6,30.15,NW,311,0.0,0.0,59,0.00,,SKC,0.00,VWS V15.00,2017-12-17 19:36:00,
2017-12-17 14:38:00,44.2,30.4,30.15,NW,311,0.0,0.0,58,0.00,,SKC,0.00,VWS V15.00,2017-12-17 19:38:00,
2017-12-17 14:42:00,44.3,30.0,30.15,West,267,1.0,1.0,57,0.00,,SKC,0.00,VWS V15.00,2017-12-17 19:42:00,
2017-12-17 14:47:00,44.0,29.8,30.16,West,278,0.0,1.0,57,0.00,,SKC,0.00,VWS V15.00,2017-12-17 19:47:00,
2017-12-17 14:48:00,43.9,30.5,30.16,West,278,0.0,1.0,59,0.00,,SKC,0.00,VWS V15.00,2017-12-17 19:48:00,
2017-12-17 14:53:00,43.7,29.9,30.16,West,280,1.0,2.0,58,0.00,,SKC,0.00,VWS V15.00,2017-12-17 19:53:00,
2017-12-17 14:54:00,43.7,29.9,30.16,West,278,2.0,3.0,58,0.00,,SKC,0.00,VWS V15.00,2017-12-17 19:54:00,
2017-12-17 14:57:00,43.6,29.8,30.16,NW,304,0.0,3.0,58,0.00,,SKC,0.00,VWS V15.00,2017-12-17 19:57:00,
2017-12-17 15:01:00,43.5,29.7,30.17,West,276,1.0,2.0,58,0.00,,SKC,0.00,VWS V15.00,2017-12-17 20:01:00,
2017-12-17 15:06:00,43.1,29.8,30.16,West,262,1.0,4.0,59,0.00,,SKC,0.00,VWS V15.00,2017-12-17 20:06:00,
2017-12-17 15:11:00,42.6,29.3,30.16,West,278,1.0,4.0,59,0.00,,SKC,0.00,VWS V15.00,2017-12-17 20:11:00,
2017-12-17 15:15:00,42.4,29.9,30.16,West,262,1.0,2.0,61,0.00,,SKC,0.00,VWS V15.00,2017-12-17 20:15:00,
2017-12-17 15:16:00,42.4,29.9,30.16,West,260,1.0,2.0,61,0.00,,SKC,0.00,VWS V15.00,2017-12-17 20:16:00,
2017-12-17 15:21:00,42.0,29.1,30.16,WSW,251,0.0,2.0,60,0.00,,SKC,0.00,VWS V15.00,2017-12-17 20:21:00,
2017-12-17 15:22:00,42.0,29.1,30.16,WSW,250,1.0,2.0,60,0.00,,SKC,0.00,VWS V15.00,2017-12-17 20:22:00,
2017-12-17 15:27:00,41.8,29.0,30.17,WSW,250,0.0,2.0,60,0.00,,SKC,0.00,VWS V15.00,2017-12-17 20:27:00,
2017-12-17 15:32:00,41.8,29.0,30.17,WSW,250,0.0,1.0,60,0.00,,SKC,0.00,VWS V15.00,2017-12-17 20:32:00,
2017-12-17 15:33:00,41.8,29.0,30.18,WSW,250,0.0,1.0,60,0.00,,SKC,0.00,VWS V15.00,2017-12-17 20:33:00,
2017-12-17 15:34:00,41.8,29.4,30.18,WSW,250,1.0,1.0,61,0.00,,SKC,0.00,VWS V15.00,2017-12-17 20:34:00,
2017-12-17 15:39:00,41.8,29.0,30.18,WSW,250,0.0,1.0,60,0.00,,SKC,0.00,VWS V15.00,2017-12-17 20:39:00,
2017-12-17 15:44:00,41.9,28.6,30.18,West,259,0.0,2.0,59,0.00,,SKC,0.00,VWS V15.00,2017-12-17 20:44:00,
2017-12-17 15:45:00,41.9,28.6,30.18,West,259,0.0,0.0,59,0.00,,SKC,0.00,VWS V15.00,2017-12-17 20:45:00,
2017-12-17 15:47:00,41.8,29.0,30.18,WSW,258,0.0,0.0,60,0.00,,SKC,0.00,VWS V15.00,2017-12-17 20:47:00,
2017-12-17 15:52:00,41.8,28.5,30.18,West,259,0.0,1.0,59,0.00,,SKC,0.00,VWS V15.00,2017-12-17 20:52:00,
2017-12-17 15:53:00,41.8,28.5,30.18,West,259,1.0,1.0,59,0.00,,SKC,0.00,VWS V15.00,2017-12-17 20:53:00,
2017-12-17 15:56:00,41.9,28.6,30.18,ESE,111,0.0,1.0,59,0.00,,SKC,0.00,VWS V15.00,2017-12-17 20:56:00,
2017-12-17 15:58:00,41.9,29.0,30.17,ESE,111,0.0,1.0,60,0.00,,SKC,0.00,VWS V15.00,2017-12-17 20:58:00,
2017-12-17 16:03:00,42.0,29.1,30.17,ESE,111,0.0,1.0,60,0.00,,SKC,0.00,VWS V15.00,2017-12-17 21:03:00,
2017-12-17 16:07:00,42.1,29.2,30.17,NNE,13,1.0,1.0,60,0.00,,SKC,0.00,VWS V15.00,2017-12-17 21:07:00,
2017-12-17 16:08:00,42.1,29.6,30.17,NNE,15,0.0,1.0,61,0.00,,SKC,0.00,VWS V15.00,2017-12-17 21:08:00,
2017-12-17 16:13:00,42.1,29.6,30.16,NNE,29,0.0,1.0,61,0.00,,SKC,0.00,VWS V15.00,2017-12-17 21:13:00,
2017-12-17 16:14:00,42.1,29.6,30.16,NNE,31,0.0,1.0,61,0.00,,SKC,0.00,VWS V15.00,2017-12-17 21:14:00,
2017-12-17 16:18:00,42.0,29.9,30.16,ESE,121,0.0,1.0,62,0.00,,SKC,0.00,VWS V15.00,2017-12-17 21:18:00,
2017-12-17 16:19:00,42.0,29.9,30.16,SE,135,0.0,1.0,62,0.00,,SKC,0.00,VWS V15.00,2017-12-17 21:19:00,
2017-12-17 16:24:00,42.1,30.4,30.17,SE,135,0.0,1.0,63,0.00,,SKC,0.00,VWS V15.00,2017-12-17 21:24:00,
2017-12-17 16:27:00,42.1,30.4,30.17,SE,135,0.0,1.0,63,0.00,,SKC,0.00,VWS V15.00,2017-12-17 21:27:00,
2017-12-17 16:32:00,42.1,30.8,30.17,WSW,253,1.0,1.0,64,0.00,,SKC,0.00,VWS V15.00,2017-12-17 21:32:00,
2017-12-17 16:35:00,41.9,31.4,30.18,SW,235,0.0,1.0,66,0.00,,SKC,0.00,VWS V15.00,2017-12-17 21:35:00,
2017-12-17 16:36:00,41.9,31.8,30.18,SW,235,0.0,1.0,67,0.00,,SKC,0.00,VWS V15.00,2017-12-17 21:36:00,
2017-12-17 16:41:00,41.7,31.6,30.17,WSW,245,1.0,2.0,67,0.00,,SKC,0.00,VWS V15.00,2017-12-17 21:41:00,
2017-12-17 16:43:00,41.5,31.7,30.17,WSW,245,0.0,2.0,68,0.00,,SKC,0.00,VWS V15.00,2017-12-17 21:43:00,
2017-12-17 16:47:00,41.4,32.0,30.18,WSW,245,0.0,0.0,69,0.00,,SKC,0.00,VWS V15.00,2017-12-17 21:47:00,
2017-12-17 16:49:00,41.4,32.7,30.18,WSW,245,0.0,0.0,71,0.00,,SKC,0.00,VWS V15.00,2017-12-17 21:49:00,
2017-12-17 16:54:00,41.2,32.9,30.17,WSW,244,0.0,1.0,72,0.00,,SKC,0.00,VWS V15.00,2017-12-17 21:54:00,
2017-12-17 16:59:00,41.0,33.0,30.17,WSW,245,0.0,1.0,73,0.00,,SKC,0.00,VWS V15.00,2017-12-17 21:59:00,
2017-12-17 17:00:00,41.0,33.4,30.17,WSW,245,0.0,0.0,74,0.00,,SKC,0.00,VWS V15.00,2017-12-17 22:00:00,
2017-12-17 17:05:00,40.8,33.5,30.17,East,89,0.0,1.0,75,0.00,,SKC,0.00,VWS V15.00,2017-12-17 22:05:00,
2017-12-17 17:06:00,40.8,33.5,30.17,East,89,0.0,1.0,75,0.00,,SKC,0.00,VWS V15.00,2017-12-17 22:06:00,
2017-12-17 17:11:00,40.7,34.1,30.16,SE,136,1.0,1.0,77,0.00,,SKC,0.00,VWS V15.00,2017-12-17 22:11:00,
2017-12-17 17:12:00,40.6,34.0,30.16,SSE,149,1.0,1.0,77,0.00,,SKC,0.00,VWS V15.00,2017-12-17 22:12:00,
2017-12-17 17:17:00,40.7,34.1,30.16,SE,126,0.0,2.0,77,0.00,,SKC,0.00,VWS V15.00,2017-12-17 22:17:00,
2017-12-17 17:18:00,40.7,34.1,30.16,SE,126,0.0,2.0,77,0.00,,SKC,0.00,VWS V15.00,2017-12-17 22:18:00,
2017-12-17 17:22:00,40.9,34.3,30.16,ESE,122,2.0,2.0,77,0.00,,SKC,0.00,VWS V15.00,2017-12-17 22:22:00,
2017-12-17 17:24:00,41.1,34.5,30.16,ESE,121,0.0,2.0,77,0.00,,SKC,0.00,VWS V15.00,2017-12-17 22:24:00,
2017-12-17 17:29:00,41.3,34.3,30.16,ESE,121,0.0,2.0,76,0.00,,SKC,0.00,VWS V15.00,2017-12-17 22:29:00,
2017-12-17 17:34:00,41.2,34.9,30.16,North,5,0.0,1.0,78,0.00,,SKC,0.00,VWS V15.00,2017-12-17 22:34:00,
2017-12-17 17:39:00,40.7,35.0,30.16,SW,219,0.0,1.0,80,0.00,,SKC,0.00,VWS V15.00,2017-12-17 22:39:00,
2017-12-17 17:40:00,40.7,35.0,30.16,SW,219,0.0,1.0,80,0.00,,SKC,0.00,VWS V15.00,2017-12-17 22:40:00,
2017-12-17 17:45:00,40.2,34.5,30.16,SW,219,0.0,0.0,80,0.00,,SKC,0.00,VWS V15.00,2017-12-17 22:45:00,
2017-12-17 17:50:00,40.1,34.8,30.16,SW,219,0.0,0.0,81,0.00,,SKC,0.00,VWS V15.00,2017-12-17 22:50:00,
2017-12-17 17:51:00,40.0,34.7,30.16,SW,219,0.0,0.0,81,0.00,,SKC,0.00,VWS V15.00,2017-12-17 22:51:00,
2017-12-17 17:56:00,40.0,34.3,30.17,SW,219,0.0,1.0,80,0.00,,SKC,0.00,VWS V15.00,2017-12-17 22:56:00,
2017-12-17 17:57:00,40.0,34.3,30.17,SW,219,0.0,1.0,80,0.00,,SKC,0.00,VWS V15.00,2017-12-17 22:57:00,
2017-12-17 18:01:00,40.0,34.3,30.17,WSW,239,0.0,1.0,80,0.00,,SKC,0.00,VWS V15.00,2017-12-17 23:01:00,
2017-12-17 18:02:00,40.0,34.3,30.17,WSW,239,0.0,1.0,80,0.00,,SKC,0.00,VWS V15.00,2017-12-17 23:02:00,
2017-12-17 18:07:00,39.8,32.5,30.17,WSW,238,0.0,1.0,75,0.00,,SKC,0.00,VWS V15.00,2017-12-17 23:07:00,
2017-12-17 18:09:00,39.9,32.6,30.17,WSW,238,0.0,1.0,75,0.00,,SKC,0.00,VWS V15.00,2017-12-17 23:09:00,
2017-12-17 18:12:00,40.1,33.2,30.16,WSW,239,0.0,1.0,76,0.00,,SKC,0.00,VWS V15.00,2017-12-17 23:12:00,
2017-12-17 18:17:00,40.1,33.5,30.16,SE,137,0.0,1.0,77,0.00,,SKC,0.00,VWS V15.00,2017-12-17 23:17:00,
2017-12-17 18:22:00,40.1,33.8,30.17,NNW,345,0.0,1.0,78,0.00,,SKC,0.00,VWS V15.00,2017-12-17 23:22:00,
2017-12-17 18:27:00,40.0,33.7,30.17,NNW,345,0.0,1.0,78,0.00,,SKC,0.00,VWS V15.00,2017-12-17 23:27:00,
2017-12-17 18:28:00,39.9,33.6,30.17,North,10,0.0,1.0,78,0.00,,SKC,0.00,VWS V15.00,2017-12-17 23:28:00,
2017-12-17 18:29:00,39.9,33.6,30.17,NNE,15,0.0,1.0,78,0.00,,SKC,0.00,VWS V15.00,2017-12-17 23:29:00,
2017-12-17 18:34:00,39.7,34.0,30.17,WSW,245,1.0,2.0,80,0.00,,SKC,0.00,VWS V15.00,2017-12-17 23:34:00,
2017-12-17 18:37:00,39.6,33.6,30.17,WSW,245,1.0,2.0,79,0.00,,SKC,0.00,VWS V15.00,2017-12-17 23:37:00,
2017-12-17 18:42:00,39.3,33.3,30.16,SSE,155,0.0,2.0,79,0.00,,SKC,0.00,VWS V15.00,2017-12-17 23:42:00,
2017-12-17 18:47:00,39.5,33.8,30.16,SE,127,0.0,1.0,80,0.00,,SKC,0.00,VWS V15.00,2017-12-17 23:47:00,
2017-12-17 18:48:00,39.5,33.8,30.16,SE,127,0.0,1.0,80,0.00,,SKC,0.00,VWS V15.00,2017-12-17 23:48:00,
2017-12-17 18:51:00,39.6,34.3,30.16,SE,132,1.0,1.0,81,0.00,,SKC,0.00,VWS V15.00,2017-12-17 23:51:00,
2017-12-17 18:53:00,39.7,34.7,30.16,East,92,0.0,2.0,82,0.00,,SKC,0.00,VWS V15.00,2017-12-17 23:53:00,
2017-12-17 18:56:00,39.9,34.9,30.16,SSE,156,0.0,2.0,82,0.00,,SKC,0.00,VWS V15.00,2017-12-17 23:56:00,
2017-12-17 18:58:00,39.9,34.9,30.16,SSE,156,0.0,2.0,82,0.00,,SKC,0.00,VWS V15.00,2017-12-17 23:58:00,
2017-12-17 19:00:00,39.8,34.8,30.16,SSE,156,0.0,0.0,82,0.00,,SKC,0.00,VWS V15.00,2017-12-18 00:00:00,
2017-12-17 19:05:00,39.3,34.3,30.16,SSE,156,0.0,1.0,82,0.00,,SKC,0.00,VWS V15.00,2017-12-18 00:05:00,